Valleyview, Canada
Current Conditions -  °F | °C
As of 2:00 PM on Tuesday 21 Oct 2014 (Local Time) from CYQU Reporting Station
Scattered Clouds Scattered Clouds  
Wind Chill: 55°   Ceiling: Unl
Heat Index: 55°   Visibility: 25mi
Dew Point: 37°   Wind: 5mph
Humidity: 51%   Direction: 170°S
Pressure: 29.59"   Gusts: NA
Location:  55.07°N, 117.28°W
Report Text: CYQU 212000Z 17004KT 120V190 25SM FEW040 FEW080 SCT210 13/03 A2959 RMK CF1AC1CI1 SLP038 DENSITY ALT 2800FT
Loading
Personal Weather Stations






























Interactive Weather Map
Tropical Storm Tracking
New forecast layout! Learn more

10-Day Weather Forecast

Advertisements
Track Severe Weather on mobile